Time;durP1;ratioP1;P1;durP2;ratioP2;P2;SDS_P1;SDS_P2;PMS_P1;PMS_P2;Temp;Humidity;BMP_temperature;BMP_pressure;BME280_temperature;BME280_humidity;BME280_pressure;Samples;Min_cycle;Max_cycle;Signal;HPM_P1;HPM_P2
2023/08/17 04:04:52;;;;;;;3.03;2.73;;;19.40;99.90;;;;;;5942609;23;20494;-61
2023/08/17 04:07:22;;;;;;;3.53;2.83;;;19.40;99.90;;;;;;4976500;28;20451;-61
2023/08/17 04:09:48;;;;;;;4.37;3.10;;;19.40;99.90;;;;;;4976258;28;20199;-61
2023/08/17 04:12:14;;;;;;;2.67;2.20;;;19.40;99.90;;;;;;4977038;28;20774;-61
2023/08/17 04:14:39;;;;;;;3.63;3.20;;;19.40;99.90;;;;;;4959177;28;20745;-61
2023/08/17 04:17:05;;;;;;;2.40;2.20;;;19.40;99.90;;;;;;4976763;28;20172;-61
2023/08/17 04:19:30;;;;;;;3.30;3.10;;;19.40;99.90;;;;;;4976731;28;20176;-61
2023/08/17 04:21:56;;;;;;;3.30;2.97;;;19.50;99.90;;;;;;4976725;28;20268;-61
2023/08/17 04:24:21;;;;;;;3.70;2.97;;;19.50;99.90;;;;;;4976357;28;20176;-61
2023/08/17 04:26:47;;;;;;;3.07;2.50;;;19.50;99.90;;;;;;4976970;28;20188;-61
2023/08/17 04:29:13;;;;;;;2.90;2.57;;;19.60;99.90;;;;;;4976477;28;20215;-61
2023/08/17 04:31:38;;;;;;;3.00;2.80;;;19.50;99.90;;;;;;4976686;28;20681;-62
2023/08/17 04:34:05;;;;;;;3.60;3.10;;;19.50;99.90;;;;;;4958355;28;20459;-61
2023/08/17 04:36:30;;;;;;;3.60;3.27;;;19.50;99.90;;;;;;4976062;28;20554;-61
2023/08/17 04:38:56;;;;;;;3.03;2.73;;;19.60;99.90;;;;;;4976573;28;20419;-61
2023/08/17 04:41:21;;;;;;;3.83;3.53;;;19.60;99.90;;;;;;4976250;28;20622;-61
2023/08/17 04:43:49;;;;;;;5.53;3.40;;;19.60;99.90;;;;;;4976226;28;20192;-61
2023/08/17 04:46:14;;;;;;;2.50;2.30;;;19.60;99.90;;;;;;4976057;28;20205;-61
2023/08/17 04:48:40;;;;;;;3.97;2.60;;;19.70;99.90;;;;;;4977068;28;20430;-61
2023/08/17 04:51:06;;;;;;;6.30;4.17;;;19.70;99.90;;;;;;4976295;28;20180;-61
2023/08/17 04:53:31;;;;;;;3.07;2.83;;;19.60;99.90;;;;;;4975843;28;20569;-62
2023/08/17 04:55:58;;;;;;;3.40;3.10;;;19.60;99.90;;;;;;4975987;28;20210;-61
2023/08/17 04:58:24;;;;;;;3.77;3.20;;;19.70;99.90;;;;;;4976214;28;20172;-61
2023/08/17 05:00:49;;;;;;;3.10;2.80;;;19.70;99.90;;;;;;4975939;28;20478;-61
2023/08/17 05:03:15;;;;;;;4.40;3.23;;;19.70;99.90;;;;;;4975900;28;20184;-61
2023/08/17 05:05:40;;;;;;;4.50;4.20;;;19.70;99.90;;;;;;4975510;28;20192;-62
2023/08/17 05:08:06;;;;;;;5.13;4.67;;;19.70;99.90;;;;;;4975878;28;20697;-61
2023/08/17 05:10:32;;;;;;;4.17;3.87;;;19.70;99.90;;;;;;4975926;28;20172;-61
2023/08/17 05:12:57;;;;;;;4.33;3.40;;;19.80;99.90;;;;;;4975791;28;20200;-62
2023/08/17 05:15:23;;;;;;;4.00;2.90;;;19.80;99.90;;;;;;4975105;28;20245;-62
2023/08/17 05:17:48;;;;;;;4.47;3.70;;;19.80;99.90;;;;;;4975855;28;20568;-61
2023/08/17 05:20:14;;;;;;;5.03;4.27;;;19.90;99.90;;;;;;4975251;28;20212;-62
2023/08/17 05:22:40;;;;;;;5.40;4.33;;;19.90;99.90;;;;;;4975735;28;20184;-62
2023/08/17 05:25:06;;;;;;;3.80;3.50;;;19.90;99.90;;;;;;4975521;28;20211;-62
2023/08/17 05:27:31;;;;;;;3.93;3.17;;;19.90;99.90;;;;;;4975358;28;20173;-62
2023/08/17 05:29:57;;;;;;;6.23;3.83;;;19.90;99.90;;;;;;4958334;28;20414;-61
2023/08/17 05:32:23;;;;;;;5.33;3.93;;;19.90;99.90;;;;;;4975487;28;20187;-62
2023/08/17 05:34:48;;;;;;;4.53;3.77;;;20.00;99.90;;;;;;4974983;28;20196;-61
2023/08/17 05:37:15;;;;;;;6.20;3.90;;;20.10;99.90;;;;;;4975179;28;20172;-62
2023/08/17 05:39:40;;;;;;;3.80;3.33;;;20.20;99.90;;;;;;4975250;28;20180;-62
2023/08/17 05:42:06;;;;;;;5.30;4.50;;;20.30;99.90;;;;;;4975324;28;20422;-62
2023/08/17 05:44:32;;;;;;;4.80;3.70;;;20.30;99.90;;;;;;4974924;28;20547;-62
2023/08/17 05:46:58;;;;;;;3.23;2.67;;;20.40;99.90;;;;;;4975243;28;20430;-61
2023/08/17 05:49:23;;;;;;;3.63;3.33;;;20.50;99.90;;;;;;4975061;28;20179;-62
2023/08/17 05:51:49;;;;;;;4.53;3.93;;;20.60;99.90;;;;;;4975402;28;20208;-62
2023/08/17 05:54:15;;;;;;;5.57;4.30;;;20.60;99.90;;;;;;4974711;28;20665;-61
2023/08/17 05:56:44;;;;;;;6.53;4.27;;;20.60;99.90;;;;;;4975184;28;20176;-61
2023/08/17 05:59:10;;;;;;;5.00;4.50;;;20.50;99.90;;;;;;4975096;28;20211;-61
2023/08/17 06:01:36;;;;;;;4.90;3.93;;;20.50;99.90;;;;;;4974907;28;20427;-61
2023/08/17 06:04:02;;;;;;;5.67;4.67;;;20.50;99.90;;;;;;4974756;28;20438;-61
2023/08/17 06:06:28;;;;;;;4.90;4.40;;;20.50;99.90;;;;;;4974663;28;20562;-62
2023/08/17 06:08:53;;;;;;;6.83;4.47;;;20.60;99.90;;;;;;4975053;28;20204;-61
2023/08/17 06:11:19;;;;;;;4.17;3.77;;;20.70;99.90;;;;;;4974904;28;20473;-62
2023/08/17 06:13:44;;;;;;;3.87;3.57;;;20.80;99.90;;;;;;4974321;28;20835;-62
2023/08/17 06:16:10;;;;;;;5.43;4.63;;;20.90;99.90;;;;;;4974719;28;20705;-61
2023/08/17 06:18:36;;;;;;;5.30;4.30;;;21.00;99.90;;;;;;4974753;28;20196;-62
2023/08/17 06:21:01;;;;;;;5.67;4.17;;;21.10;99.90;;;;;;4975034;28;20186;-62
2023/08/17 06:23:27;;;;;;;4.00;3.70;;;21.20;99.90;;;;;;4974547;28;20420;-62
2023/08/17 06:25:57;;;;;;;4.73;4.33;;;21.30;99.90;;;;;;4974268;28;20727;-62
2023/08/17 06:28:23;;;;;;;6.83;4.40;;;21.40;99.90;;;;;;4974740;28;20260;-62
2023/08/17 06:30:53;;;;;;;4.70;4.13;;;21.40;99.90;;;;;;4973940;28;20838;-61
2023/08/17 06:33:19;;;;;;;5.60;4.30;;;21.40;99.90;;;;;;4974531;28;20212;-61
2023/08/17 06:35:44;;;;;;;4.90;4.47;;;21.50;99.90;;;;;;4974003;28;20465;-62
2023/08/17 06:38:10;;;;;;;4.40;4.00;;;21.60;99.90;;;;;;4974738;28;20421;-61
2023/08/17 06:40:35;;;;;;;4.53;4.10;;;21.70;99.90;;;;;;4974544;28;20590;-62
2023/08/17 06:43:01;;;;;;;5.23;4.73;;;21.90;99.90;;;;;;4974433;28;20181;-62
2023/08/17 06:45:27;;;;;;;5.17;3.73;;;22.10;99.90;;;;;;4974114;28;20205;-62
2023/08/17 06:47:52;;;;;;;4.23;3.93;;;22.30;99.90;;;;;;4974426;28;20182;-62
2023/08/17 06:50:18;;;;;;;4.83;4.33;;;22.60;99.90;;;;;;4974548;28;20183;-62
2023/08/17 06:52:44;;;;;;;10.13;4.03;;;22.80;99.90;;;;;;4974408;28;20670;-62
2023/08/17 06:55:12;;;;;;;3.77;3.37;;;22.90;99.90;;;;;;4973997;28;20193;-62
2023/08/17 06:57:38;;;;;;;4.07;3.67;;;23.00;99.90;;;;;;4974366;28;20424;-62
2023/08/17 07:00:07;;;;;;;3.53;3.23;;;23.20;99.90;;;;;;4974213;28;20466;-62
2023/08/17 07:02:34;;;;;;;5.23;4.03;;;23.40;99.90;;;;;;4974430;28;20207;-63
2023/08/17 07:05:00;;;;;;;5.30;4.57;;;23.60;99.90;;;;;;4973958;28;20427;-62
2023/08/17 07:07:25;;;;;;;4.10;3.70;;;23.80;99.90;;;;;;4974361;28;20805;-61
2023/08/17 07:09:51;;;;;;;5.10;4.27;;;23.90;99.90;;;;;;4974143;28;20378;-62
2023/08/17 07:12:16;;;;;;;3.93;3.10;;;23.90;99.90;;;;;;4973990;28;20700;-62
2023/08/17 07:14:42;;;;;;;6.67;4.50;;;24.10;99.90;;;;;;4973831;28;20204;-62
2023/08/17 07:17:08;;;;;;;4.90;4.27;;;24.00;99.90;;;;;;4974223;28;20177;-62
2023/08/17 07:19:33;;;;;;;5.33;4.80;;;24.10;99.90;;;;;;4974301;28;20180;-62
2023/08/17 07:21:59;;;;;;;5.83;5.20;;;24.40;99.90;;;;;;4974122;28;20264;-62
2023/08/17 07:24:24;;;;;;;5.30;4.50;;;24.60;99.90;;;;;;4973859;28;20546;-62
2023/08/17 07:26:50;;;;;;;3.67;3.23;;;24.90;99.90;;;;;;4974201;28;20188;-62
2023/08/17 07:29:16;;;;;;;4.93;3.80;;;25.10;99.90;;;;;;4974246;28;20273;-62
2023/08/17 07:31:41;;;;;;;5.37;3.83;;;25.20;99.90;;;;;;4974318;28;20175;-62
2023/08/17 07:34:07;;;;;;;4.17;3.80;;;25.30;99.90;;;;;;4973394;28;20221;-62
2023/08/17 07:36:33;;;;;;;5.63;4.40;;;25.40;99.90;;;;;;4974100;28;20205;-63
2023/08/17 07:38:59;;;;;;;6.67;4.70;;;25.60;99.90;;;;;;4974026;28;20624;-62
2023/08/17 07:41:25;;;;;;;5.10;4.60;;;25.80;99.90;;;;;;4974049;28;20488;-62
2023/08/17 07:43:50;;;;;;;5.60;5.07;;;25.90;99.90;;;;;;4958775;28;20659;-63
2023/08/17 07:46:16;;;;;;;5.00;3.77;;;25.70;99.90;;;;;;4977534;28;20420;-63
2023/08/17 07:48:41;;;;;;;4.00;3.63;;;25.80;99.90;;;;;;4977422;28;20179;-63
2023/08/17 07:51:07;;;;;;;5.10;4.60;;;26.00;99.90;;;;;;4977480;28;20626;-63
2023/08/17 07:53:33;;;;;;;7.37;5.40;;;26.20;99.90;;;;;;4976978;28;20641;-63
2023/08/17 07:55:58;;;;;;;4.87;4.43;;;26.40;99.90;;;;;;4959417;28;20188;-63
2023/08/17 07:58:24;;;;;;;5.13;4.53;;;26.80;99.90;;;;;;4977151;28;20226;-63
2023/08/17 08:00:49;;;;;;;6.00;5.50;;;27.40;99.90;;;;;;4977144;28;20176;-63
2023/08/17 08:03:15;;;;;;;5.20;4.60;;;27.90;99.90;;;;;;4977490;28;20283;-62
2023/08/17 08:05:40;;;;;;;5.27;4.50;;;28.00;99.90;;;;;;4976538;28;20230;-62
2023/08/17 08:08:07;;;;;;;4.27;3.87;;;28.30;99.90;;;;;;4977114;28;20188;-63
2023/08/17 08:10:32;;;;;;;4.20;3.80;;;28.80;99.90;;;;;;4976929;28;20312;-62
2023/08/17 08:12:58;;;;;;;3.70;3.40;;;29.70;99.90;;;;;;4977002;28;20558;-63
2023/08/17 08:15:24;;;;;;;4.80;4.40;;;30.70;99.90;;;;;;4976737;28;20654;-63
2023/08/17 08:17:49;;;;;;;5.70;5.20;;;31.60;99.90;;;;;;4976936;28;20569;-62
2023/08/17 08:20:15;;;;;;;4.80;4.40;;;32.00;99.90;;;;;;4976770;28;20619;-61
2023/08/17 08:22:40;;;;;;;3.47;3.23;;;32.10;99.90;;;;;;4976775;28;20215;-63
2023/08/17 08:25:06;;;;;;;4.60;4.20;;;32.40;99.90;;;;;;4976364;28;20255;-62
2023/08/17 08:27:32;;;;;;;4.70;4.30;;;32.80;99.90;;;;;;4976816;28;20567;-63
2023/08/17 08:29:58;;;;;;;4.20;3.83;;;33.50;99.90;;;;;;4976509;28;20536;-63
2023/08/17 08:32:23;;;;;;;5.00;4.30;;;34.30;98.40;;;;;;4976602;28;20179;-62
2023/08/17 08:34:49;;;;;;;6.20;5.70;;;35.00;96.70;;;;;;4976007;28;20200;-63
2023/08/17 08:37:15;;;;;;;4.03;3.73;;;35.40;95.10;;;;;;4976554;28;20646;-63
2023/08/17 08:39:51;;;;;;;5.97;5.47;;;35.70;95.30;;;;;;4976460;28;20773;-63
2023/08/17 08:42:18;;;;;;;4.10;3.90;;;36.10;93.30;;;;;;4976021;28;20416;-63
2023/08/17 08:44:44;;;;;;;5.33;4.83;;;36.20;93.50;;;;;;4976004;28;20446;-63
2023/08/17 08:47:10;;;;;;;4.97;4.60;;;36.70;91.90;;;;;;4976334;28;20411;-63
2023/08/17 08:49:40;;;;;;;5.20;4.70;;;37.20;91.70;;;;;;4976212;28;20938;-63
2023/08/17 08:52:19;;;;;;;4.10;3.80;;;37.30;89.10;;;;;;4976154;28;20183;-62
2023/08/17 08:54:49;;;;;;;4.63;4.33;;;37.20;90.90;;;;;;4975076;28;20467;-63
2023/08/17 08:57:15;;;;;;;4.47;4.17;;;37.20;91.10;;;;;;4976114;28;20407;-63
2023/08/17 08:59:44;;;;;;;3.80;3.50;;;37.40;90.50;;;;;;4975910;28;20403;-63
2023/08/17 09:02:15;;;;;;;5.27;4.87;;;37.40;90.30;;;;;;4975972;28;21013;-63
2023/08/17 09:04:45;;;;;;;9.53;4.43;;;37.40;90.70;;;;;;4957957;28;20834;-63
2023/08/17 09:07:13;;;;;;;4.20;3.90;;;37.20;90.10;;;;;;4975630;28;20522;-63
2023/08/17 09:09:39;;;;;;;4.43;4.13;;;37.00;90.50;;;;;;4975691;28;20763;-63
2023/08/17 09:12:07;;;;;;;4.83;4.43;;;36.50;90.80;;;;;;4975730;28;20427;-64
2023/08/17 09:14:33;;;;;;;4.17;3.87;;;36.20;92.20;;;;;;4975055;28;20184;-63
2023/08/17 09:16:58;;;;;;;5.40;4.90;;;36.50;91.10;;;;;;4975458;28;20422;-64
2023/08/17 09:19:25;;;;;;;4.10;3.80;;;37.10;90.00;;;;;;4975434;28;20271;-63
2023/08/17 09:21:51;;;;;;;4.70;4.40;;;37.40;90.00;;;;;;4975685;28;20187;-63
2023/08/17 09:24:16;;;;;;;5.00;4.60;;;37.60;88.70;;;;;;4975021;28;20534;-63
2023/08/17 09:26:42;;;;;;;3.90;3.60;;;37.80;87.20;;;;;;4975381;28;20497;-63
2023/08/17 09:29:18;;;;;;;5.33;4.90;;;38.00;89.40;;;;;;4975346;28;20260;-63
2023/08/17 09:31:44;;;;;;;5.00;4.50;;;38.40;85.80;;;;;;4975201;28;20164;-64
2023/08/17 09:34:10;;;;;;;4.60;4.30;;;38.80;84.40;;;;;;4975172;28;20426;-63
2023/08/17 09:36:36;;;;;;;4.53;4.23;;;39.20;82.00;;;;;;4975312;28;20486;-63
2023/08/17 09:39:03;;;;;;;4.73;4.23;;;38.90;81.40;;;;;;4975241;28;20176;-63
2023/08/17 09:41:29;;;;;;;5.23;4.83;;;38.90;83.20;;;;;;4975397;28;20454;-63
2023/08/17 09:43:57;;;;;;;4.20;3.90;;;39.30;84.00;;;;;;4974860;28;20483;-63
2023/08/17 09:46:25;;;;;;;4.17;3.87;;;39.50;79.60;;;;;;4974937;28;20199;-63
2023/08/17 09:48:50;;;;;;;5.40;4.13;;;39.40;80.40;;;;;;4974980;28;20483;-63
2023/08/17 09:51:16;;;;;;;4.50;4.20;;;39.40;81.30;;;;;;4974967;28;20933;-63
2023/08/17 09:53:42;;;;;;;4.27;3.97;;;39.30;78.80;;;;;;4974521;28;20180;-63
2023/08/17 09:56:10;;;;;;;4.73;4.43;;;39.00;80.60;;;;;;4974754;28;20515;-63
2023/08/17 09:58:37;;;;;;;4.73;4.33;;;38.50;79.70;;;;;;4974976;28;20176;-63
2023/08/17 10:01:07;;;;;;;4.53;4.23;;;38.00;82.00;;;;;;4974849;28;20458;-63
2023/08/17 10:03:34;;;;;;;4.10;3.80;;;38.00;84.00;;;;;;4974411;28;20447;-64
2023/08/17 10:06:06;;;;;;;5.10;4.80;;;38.20;84.50;;;;;;4973350;28;20448;-63
2023/08/17 10:08:36;;;;;;;4.73;4.43;;;38.40;83.10;;;;;;4974683;28;20961;-63
2023/08/17 10:11:04;;;;;;;4.80;4.50;;;38.60;81.80;;;;;;4974627;28;20408;-63
2023/08/17 10:13:44;;;;;;;4.10;3.80;;;38.60;82.50;;;;;;4974479;28;20419;-63
2023/08/17 10:16:43;;;;;;;5.00;4.70;;;38.30;82.00;;;;;;4974559;28;20859;-63
2023/08/17 10:19:38;;;;;;;3.93;3.70;;;38.20;82.70;;;;;;4925459;28;20423;-63
2023/08/17 10:22:15;;;;;;;4.60;4.30;;;38.10;83.70;;;;;;4974115;28;20420;-62
2023/08/17 10:24:42;;;;;;;4.80;4.40;;;38.10;82.40;;;;;;4973619;28;20972;-63
2023/08/17 10:27:08;;;;;;;4.37;4.07;;;38.10;85.20;;;;;;4974039;28;20404;-63
2023/08/17 10:29:36;;;;;;;4.70;4.40;;;38.20;85.90;;;;;;4974127;28;20416;-63
2023/08/17 10:32:02;;;;;;;4.87;4.47;;;38.00;82.40;;;;;;4973989;28;20881;-63
2023/08/17 10:34:28;;;;;;;4.37;4.07;;;37.80;82.80;;;;;;4973841;28;20459;-63
2023/08/17 10:36:57;;;;;;;5.47;5.07;;;37.70;83.40;;;;;;4974107;28;20430;-63
2023/08/17 10:39:25;;;;;;;4.70;4.40;;;37.00;83.50;;;;;;4974109;28;20420;-63
2023/08/17 10:41:52;;;;;;;5.03;4.73;;;36.80;87.50;;;;;;4974014;28;20499;-63
2023/08/17 10:44:37;;;;;;;4.63;4.30;;;36.70;86.50;;;;;;4973365;28;20463;-63
2023/08/17 10:47:22;;;;;;;4.80;4.43;;;37.00;88.00;;;;;;4974113;28;20502;-63
2023/08/17 10:50:23;;;;;;;5.60;5.20;;;37.20;87.80;;;;;;4973862;28;20505;-63
2023/08/17 10:52:50;;;;;;;5.50;5.00;;;36.60;84.30;;;;;;4973847;28;20422;-63
2023/08/17 10:55:16;;;;;;;4.80;4.40;;;36.20;86.10;;;;;;4973390;28;20447;-61
2023/08/17 10:57:43;;;;;;;5.90;5.40;;;36.10;86.30;;;;;;4973724;28;20415;-62
2023/08/17 11:00:27;;;;;;;4.83;4.43;;;35.80;86.60;;;;;;4973924;28;20412;-62
2023/08/17 11:03:03;;;;;;;4.57;4.17;;;36.10;88.00;;;;;;4974250;28;20447;-62
2023/08/17 11:05:36;;;;;;;5.17;4.77;;;36.30;85.90;;;;;;4973695;28;20431;-63
2023/08/17 11:08:02;;;;;;;4.60;4.30;;;36.50;85.70;;;;;;4974273;28;20883;-63
2023/08/17 11:10:29;;;;;;;5.57;5.17;;;36.80;86.20;;;;;;4974167;28;20443;-63
2023/08/17 11:13:02;;;;;;;4.80;4.30;;;37.00;86.10;;;;;;4974215;28;20191;-63
2023/08/17 11:15:44;;;;;;;6.33;5.57;;;37.00;86.90;;;;;;4973907;28;20499;-63
2023/08/17 11:18:11;;;;;;;4.80;4.40;;;36.70;88.20;;;;;;4975818;28;20435;-62
2023/08/17 11:20:39;;;;;;;5.33;4.87;;;36.00;87.80;;;;;;4977757;28;20498;-62
2023/08/17 11:23:09;;;;;;;4.70;4.30;;;35.50;87.90;;;;;;4977435;28;20497;-63
2023/08/17 11:25:35;;;;;;;4.63;4.23;;;35.00;89.70;;;;;;4977306;28;20427;-62
2023/08/17 11:28:01;;;;;;;5.53;5.03;;;34.20;90.40;;;;;;4977631;28;20457;-62
2023/08/17 11:30:28;;;;;;;6.20;5.70;;;33.60;91.50;;;;;;4977533;28;20176;-62
2023/08/17 11:32:55;;;;;;;5.43;4.73;;;33.10;93.10;;;;;;4960102;28;20423;-68
2023/08/17 11:35:21;;;;;;;5.27;4.77;;;32.60;92.70;;;;;;4959852;28;20402;-62
2023/08/17 11:37:51;;;;;;;4.80;4.40;;;32.20;94.10;;;;;;4977681;28;20419;-62
2023/08/17 11:40:17;;;;;;;5.23;4.83;;;32.00;94.90;;;;;;4977685;28;20542;-63
2023/08/17 11:42:43;;;;;;;5.80;5.30;;;31.80;95.80;;;;;;4977543;28;20415;-62
2023/08/17 11:45:09;;;;;;;4.80;4.40;;;31.70;95.40;;;;;;4976895;28;20406;-62
2023/08/17 11:47:39;;;;;;;4.50;4.20;;;31.80;95.80;;;;;;4977230;28;20490;-62
2023/08/17 11:50:06;;;;;;;6.40;5.00;;;31.80;95.40;;;;;;4977489;28;20422;-62
2023/08/17 11:52:36;;;;;;;5.80;4.90;;;31.80;95.40;;;;;;4977192;28;20411;-62
2023/08/17 11:55:04;;;;;;;5.23;4.73;;;31.70;96.40;;;;;;4976885;28;20402;-62
2023/08/17 11:57:30;;;;;;;6.17;5.57;;;31.50;95.60;;;;;;4977297;28;20489;-63
2023/08/17 11:59:56;;;;;;;5.47;5.03;;;31.40;96.50;;;;;;4976976;28;20925;-62
2023/08/17 12:02:25;;;;;;;5.87;4.90;;;31.60;97.70;;;;;;4977283;28;20526;-62
2023/08/17 12:04:52;;;;;;;5.70;5.20;;;31.80;97.20;;;;;;4976739;28;20533;-63
2023/08/17 12:07:19;;;;;;;5.60;5.20;;;32.00;96.40;;;;;;4977014;28;20455;-63
2023/08/17 12:09:46;;;;;;;5.27;4.77;;;32.00;96.00;;;;;;4959571;28;20375;-61
2023/08/17 12:12:12;;;;;;;5.23;4.73;;;31.80;95.30;;;;;;4977010;28;20836;-61
2023/08/17 12:14:42;;;;;;;5.40;4.90;;;31.60;95.40;;;;;;4976617;28;20435;-62
2023/08/17 12:17:15;;;;;;;6.37;5.77;;;31.40;95.80;;;;;;4976971;28;20412;-62
2023/08/17 12:19:40;;;;;;;4.47;4.10;;;31.10;96.60;;;;;;4976876;28;20469;-62
2023/08/17 12:22:06;;;;;;;5.80;5.30;;;30.90;97.60;;;;;;4976882;28;20394;-62
2023/08/17 12:24:32;;;;;;;5.27;4.77;;;30.80;98.00;;;;;;4976297;28;20204;-61
2023/08/17 12:26:58;;;;;;;5.83;5.23;;;30.60;97.90;;;;;;4976758;28;20176;-62
2023/08/17 12:29:24;;;;;;;6.07;5.53;;;30.60;98.40;;;;;;4975542;28;20169;-62
2023/08/17 12:31:52;;;;;;;7.63;5.63;;;30.30;98.20;;;;;;4976644;28;20422;-62
2023/08/17 12:34:18;;;;;;;5.07;4.67;;;30.20;98.70;;;;;;4976233;28;20186;-62
2023/08/17 12:36:44;;;;;;;5.00;4.50;;;29.90;99.10;;;;;;4976569;28;20386;-62
2023/08/17 12:39:10;;;;;;;6.40;5.80;;;29.80;99.40;;;;;;4976498;28;20382;-62
2023/08/17 12:41:35;;;;;;;4.60;4.20;;;29.70;99.90;;;;;;4975943;28;20908;-62
2023/08/17 12:44:01;;;;;;;6.43;5.83;;;29.60;99.90;;;;;;4975632;28;20238;-62
2023/08/17 12:46:27;;;;;;;5.93;5.27;;;29.50;99.90;;;;;;4975985;28;20520;-62
2023/08/17 12:48:53;;;;;;;5.50;5.00;;;29.40;99.90;;;;;;4976128;28;20446;-62
2023/08/17 12:51:19;;;;;;;5.97;5.27;;;29.30;99.90;;;;;;4976019;28;20436;-62
2023/08/17 12:53:44;;;;;;;6.77;6.27;;;29.30;99.90;;;;;;4975632;28;20172;-63
2023/08/17 12:56:10;;;;;;;8.00;4.90;;;29.30;99.90;;;;;;4975682;28;20197;-62
2023/08/17 12:58:35;;;;;;;5.33;4.87;;;29.20;99.90;;;;;;4975811;28;20180;-62
2023/08/17 13:01:02;;;;;;;4.60;4.20;;;29.10;99.90;;;;;;4975889;28;20211;-62
2023/08/17 13:03:28;;;;;;;5.20;4.73;;;29.10;99.90;;;;;;4975520;28;20208;-62
2023/08/17 13:05:54;;;;;;;4.50;4.20;;;29.10;99.90;;;;;;4975134;28;20441;-63
2023/08/17 13:08:19;;;;;;;4.90;4.50;;;28.90;99.90;;;;;;4975542;28;20246;-61
2023/08/17 13:10:45;;;;;;;4.60;4.20;;;28.80;99.90;;;;;;4975688;28;20499;-62
2023/08/17 13:13:11;;;;;;;4.20;3.80;;;28.70;99.90;;;;;;4975575;28;20180;-62
2023/08/17 13:15:36;;;;;;;5.00;4.47;;;28.60;99.90;;;;;;4975056;28;20726;-62
2023/08/17 13:18:02;;;;;;;3.63;3.33;;;28.40;99.90;;;;;;4975349;28;20184;-62
2023/08/17 13:20:28;;;;;;;4.00;3.70;;;28.30;99.90;;;;;;4975427;28;20172;-61
2023/08/17 13:22:53;;;;;;;4.43;4.03;;;28.20;99.90;;;;;;4975160;28;20204;-62
2023/08/17 13:25:19;;;;;;;6.87;3.60;;;28.10;99.90;;;;;;4974797;28;20684;-61
2023/08/17 13:27:45;;;;;;;4.67;3.80;;;27.90;99.90;;;;;;4975035;28;20180;-61
2023/08/17 13:30:11;;;;;;;3.40;3.10;;;27.80;99.90;;;;;;4975290;28;20171;-62
2023/08/17 13:32:36;;;;;;;3.80;3.50;;;27.60;99.90;;;;;;4975013;28;20195;-63
2023/08/17 13:35:03;;;;;;;4.10;3.50;;;27.50;99.90;;;;;;4974441;28;20415;-61
2023/08/17 13:37:28;;;;;;;3.67;3.23;;;27.40;99.90;;;;;;4975054;28;20176;-61
2023/08/17 13:39:54;;;;;;;4.10;3.10;;;27.20;99.90;;;;;;4974563;28;20391;-61
2023/08/17 13:42:20;;;;;;;4.60;3.40;;;27.10;99.90;;;;;;4974573;28;20209;-60
2023/08/17 13:44:46;;;;;;;3.90;3.50;;;26.90;99.90;;;;;;4974367;28;20506;-62
2023/08/17 13:47:12;;;;;;;4.03;3.70;;;26.80;99.90;;;;;;4974692;28;20182;-61
2023/08/17 13:49:37;;;;;;;4.23;3.90;;;26.60;99.90;;;;;;4974868;28;20180;-62
2023/08/17 13:52:03;;;;;;;3.40;3.10;;;26.50;99.90;;;;;;4975052;28;20435;-62
2023/08/17 13:54:29;;;;;;;4.00;3.70;;;26.30;99.90;;;;;;4974349;28;20185;-62
2023/08/17 13:56:55;;;;;;;4.30;3.20;;;26.10;99.90;;;;;;4974791;28;20434;-62
2023/08/17 13:59:20;;;;;;;4.10;3.80;;;26.00;99.90;;;;;;4974684;28;20647;-61
2023/08/17 14:01:46;;;;;;;3.63;3.43;;;25.90;99.90;;;;;;4974710;28;20180;-61
2023/08/17 14:04:12;;;;;;;3.47;3.20;;;25.80;99.90;;;;;;4973984;28;20258;-62
2023/08/17 14:06:40;;;;;;;3.70;3.40;;;25.60;99.90;;;;;;4974253;28;20220;-62
2023/08/17 14:09:07;;;;;;;4.60;4.20;;;25.50;99.90;;;;;;4974681;28;20564;-62
2023/08/17 14:11:33;;;;;;;4.47;3.80;;;25.40;99.90;;;;;;4974456;28;20865;-62
2023/08/17 14:13:58;;;;;;;4.13;3.73;;;25.30;99.90;;;;;;4974066;28;20382;-62
2023/08/17 14:16:24;;;;;;;4.47;4.17;;;25.20;99.90;;;;;;4974227;28;20490;-62
2023/08/17 14:18:50;;;;;;;5.03;4.63;;;25.10;99.90;;;;;;4974489;28;20271;-61
2023/08/17 14:21:15;;;;;;;4.37;4.07;;;25.00;99.90;;;;;;4974385;28;20591;-62
2023/08/17 14:23:51;;;;;;;4.17;3.83;;;24.90;99.90;;;;;;4975982;28;20242;-62
2023/08/17 14:26:17;;;;;;;4.30;3.90;;;24.80;99.90;;;;;;4976563;28;20203;-61
2023/08/17 14:28:43;;;;;;;3.40;3.17;;;24.80;99.90;;;;;;4977059;28;20423;-61
2023/08/17 14:31:12;;;;;;;4.83;4.43;;;24.80;99.90;;;;;;4975749;28;20758;-61
2023/08/17 14:33:37;;;;;;;5.43;3.57;;;24.90;99.90;;;;;;4957999;28;20538;-63
2023/08/17 14:36:03;;;;;;;4.90;4.43;;;24.90;99.90;;;;;;4975269;28;20511;-61
2023/08/17 14:38:29;;;;;;;4.70;4.20;;;24.90;99.90;;;;;;4976728;28;20198;-62
2023/08/17 14:40:55;;;;;;;4.70;4.40;;;25.00;99.90;;;;;;4975673;28;20177;-61
2023/08/17 14:43:20;;;;;;;4.03;3.70;;;25.00;99.90;;;;;;4975298;28;21012;-62
2023/08/17 14:45:46;;;;;;;4.77;3.90;;;25.00;99.90;;;;;;4973930;28;20439;-62
2023/08/17 14:48:12;;;;;;;5.20;4.70;;;24.90;99.90;;;;;;4975244;28;20172;-61
2023/08/17 14:50:38;;;;;;;4.20;3.80;;;24.90;99.90;;;;;;4975958;28;20269;-62
2023/08/17 14:53:07;;;;;;;4.17;3.80;;;24.90;99.90;;;;;;4978653;28;20183;-62
2023/08/17 14:55:34;;;;;;;5.53;4.23;;;25.00;99.90;;;;;;4979938;28;20203;-62
2023/08/17 14:58:00;;;;;;;3.60;3.40;;;24.90;99.90;;;;;;4980258;28;20394;-63
2023/08/17 15:00:26;;;;;;;3.93;3.60;;;24.80;99.90;;;;;;4982768;28;20755;-62
2023/08/17 15:02:57;;;;;;;4.47;3.97;;;24.90;99.90;;;;;;4981735;28;20184;-63
2023/08/17 15:05:23;;;;;;;4.23;3.93;;;25.00;99.90;;;;;;4962932;28;20422;-62
2023/08/17 15:07:49;;;;;;;5.10;4.60;;;25.00;99.90;;;;;;4980876;28;20437;-62
2023/08/17 15:10:14;;;;;;;4.50;4.10;;;25.00;99.90;;;;;;4980051;28;20923;-62
2023/08/17 15:12:40;;;;;;;4.97;4.50;;;25.00;99.90;;;;;;4980994;28;20430;-62
2023/08/17 15:15:07;;;;;;;5.17;4.10;;;24.90;99.90;;;;;;4979549;28;20200;-62
2023/08/17 15:17:33;;;;;;;4.20;3.80;;;24.90;99.90;;;;;;4980323;28;20657;-61
2023/08/17 15:19:59;;;;;;;4.90;4.50;;;24.90;99.90;;;;;;4979916;28;20796;-62
2023/08/17 15:22:26;;;;;;;4.17;3.77;;;25.00;99.90;;;;;;4979060;28;20812;-62
2023/08/17 15:24:52;;;;;;;3.83;3.63;;;25.00;99.90;;;;;;4978408;28;20433;-62
2023/08/17 15:27:18;;;;;;;4.50;4.10;;;25.00;99.90;;;;;;4978228;28;20411;-62
2023/08/17 15:29:43;;;;;;;11.60;6.50;;;24.90;99.90;;;;;;4961714;28;20428;-62
2023/08/17 15:32:09;;;;;;;6.77;4.80;;;24.90;99.90;;;;;;4979913;28;20172;-61
2023/08/17 15:34:35;;;;;;;6.53;4.07;;;25.00;99.90;;;;;;4978305;28;20203;-61
2023/08/17 15:37:01;;;;;;;4.70;4.20;;;25.00;99.90;;;;;;4980555;28;20176;-61
2023/08/17 15:39:27;;;;;;;4.23;3.83;;;25.10;99.90;;;;;;4979633;28;20220;-62
2023/08/17 15:41:53;;;;;;;5.03;4.53;;;25.10;99.90;;;;;;4980218;28;20638;-61
2023/08/17 15:44:19;;;;;;;4.83;4.40;;;25.10;99.90;;;;;;4980593;28;20211;-61
2023/08/17 15:46:44;;;;;;;4.07;3.20;;;25.20;99.90;;;;;;4979765;28;20733;-62
2023/08/17 15:49:11;;;;;;;5.03;4.53;;;25.20;99.90;;;;;;4978626;28;20176;-62
2023/08/17 15:51:38;;;;;;;5.63;5.13;;;25.20;99.90;;;;;;4979994;28;20188;-62
2023/08/17 15:54:04;;;;;;;5.77;3.60;;;25.20;99.90;;;;;;4980777;28;20533;-62
2023/08/17 15:56:31;;;;;;;4.03;3.80;;;25.20;99.90;;;;;;4978594;28;20409;-62
2023/08/17 15:58:57;;;;;;;4.83;4.43;;;25.20;99.90;;;;;;4981736;28;20420;-62
2023/08/17 16:01:25;;;;;;;4.63;4.27;;;25.20;99.90;;;;;;4982812;28;20745;-62
2023/08/17 16:03:51;;;;;;;4.60;4.20;;;25.30;99.90;;;;;;4978241;28;20856;-62
2023/08/17 16:06:16;;;;;;;3.80;3.50;;;25.20;99.90;;;;;;4976423;28;20513;-61
2023/08/17 16:08:43;;;;;;;4.13;3.73;;;25.30;99.90;;;;;;4976565;28;20623;-61
2023/08/17 16:11:09;;;;;;;4.27;3.90;;;25.30;99.90;;;;;;4976620;28;20219;-62
2023/08/17 16:13:35;;;;;;;4.33;3.97;;;25.30;99.90;;;;;;4976483;28;20766;-63
2023/08/17 16:16:00;;;;;;;4.50;4.20;;;25.30;99.90;;;;;;4976404;28;20395;-62
2023/08/17 16:18:26;;;;;;;4.77;3.80;;;25.30;99.90;;;;;;4976577;28;20287;-62
2023/08/17 16:20:51;;;;;;;4.00;3.70;;;25.30;99.90;;;;;;4976547;28;20180;-62
2023/08/17 16:23:17;;;;;;;4.63;4.20;;;25.30;99.90;;;;;;4976255;28;20659;-62
2023/08/17 16:25:43;;;;;;;4.03;3.73;;;25.30;99.90;;;;;;4976151;28;20246;-62
2023/08/17 16:28:09;;;;;;;5.10;4.70;;;25.30;99.90;;;;;;4976341;28;20530;-62
2023/08/17 16:30:36;;;;;;;4.17;3.80;;;25.30;99.90;;;;;;4976276;28;20469;-62
2023/08/17 16:33:01;;;;;;;4.90;4.50;;;25.30;99.90;;;;;;4976191;28;20627;-62
2023/08/17 16:35:27;;;;;;;3.70;3.40;;;25.40;99.90;;;;;;4975827;28;20439;-62
2023/08/17 16:37:52;;;;;;;4.87;4.37;;;25.50;99.90;;;;;;4976131;28;20204;-62
2023/08/17 16:40:18;;;;;;;4.30;3.90;;;25.50;99.90;;;;;;4976191;28;20710;-62
2023/08/17 16:42:45;;;;;;;4.30;3.93;;;25.60;99.90;;;;;;4975989;28;20168;-62
2023/08/17 16:45:11;;;;;;;4.20;3.80;;;25.70;99.90;;;;;;4975360;28;20694;-62
2023/08/17 16:47:36;;;;;;;4.57;3.87;;;25.80;99.90;;;;;;4976069;28;20442;-61
2023/08/17 16:50:02;;;;;;;4.67;4.27;;;25.80;99.90;;;;;;4975850;28;20649;-61